Time;durP1;ratioP1;P1;durP2;ratioP2;P2;SDS_P1;SDS_P2;PMS_P1;PMS_P2;Temp;Humidity;BMP_temperature;BMP_pressure;BME280_temperature;BME280_humidity;BME280_pressure;Samples;Min_cycle;Max_cycle;Signal;HPM_P1;HPM_P2
2021/08/10 00:01:04;;;;;;;0.00;0.00;;;20.90;99.90;;;;;;5069473;28;20168;-74
2021/08/10 00:03:30;;;;;;;0.10;0.10;;;20.80;99.90;;;;;;5069467;28;20271;-74
2021/08/10 00:05:56;;;;;;;0.38;0.38;;;20.80;99.90;;;;;;5069306;28;20188;-74
2021/08/10 00:08:22;;;;;;;0.10;0.10;;;20.70;99.90;;;;;;5069362;28;20185;-75
2021/08/10 00:10:50;;;;;;;0.10;0.10;;;20.60;99.90;;;;;;5069231;28;20172;-75
2021/08/10 00:13:18;;;;;;;0.00;0.00;;;20.50;99.90;;;;;;5069087;28;20220;-75
2021/08/10 00:15:44;;;;;;;0.10;0.10;;;20.50;99.90;;;;;;5069117;28;20210;-75
2021/08/10 00:18:11;;;;;;;0.20;0.20;;;20.30;99.90;;;;;;5067454;28;20192;-75
2021/08/10 00:20:37;;;;;;;0.20;0.20;;;20.30;99.90;;;;;;5068964;28;20180;-75
2021/08/10 00:23:03;;;;;;;0.10;0.10;;;20.30;99.90;;;;;;5068761;28;20161;-74
2021/08/10 00:25:29;;;;;;;0.25;0.25;;;20.20;99.90;;;;;;5068555;28;20221;-75
2021/08/10 00:27:56;;;;;;;0.00;0.00;;;20.10;99.90;;;;;;5068848;28;20188;-75
2021/08/10 00:30:22;;;;;;;0.52;0.40;;;20.20;99.90;;;;;;5067351;28;20169;-75
2021/08/10 00:32:48;;;;;;;0.20;0.20;;;20.10;99.90;;;;;;5082658;28;20168;-75
2021/08/10 00:35:15;;;;;;;0.10;0.10;;;20.00;99.90;;;;;;5088740;28;20716;-75
2021/08/10 00:37:42;;;;;;;0.00;0.00;;;20.00;99.90;;;;;;5088625;28;20201;-75
2021/08/10 00:40:09;;;;;;;0.77;0.77;;;20.00;99.90;;;;;;5070685;28;20172;-75
2021/08/10 00:42:35;;;;;;;0.10;0.10;;;20.10;99.90;;;;;;5070882;28;20194;-75
2021/08/10 00:45:01;;;;;;;0.00;0.00;;;20.00;99.90;;;;;;5089340;28;20309;-75
2021/08/10 00:47:27;;;;;;;0.00;0.00;;;19.90;99.90;;;;;;5071475;28;20196;-76
2021/08/10 00:49:53;;;;;;;0.13;0.13;;;19.70;99.90;;;;;;5089588;28;20172;-76
2021/08/10 00:52:19;;;;;;;0.00;0.00;;;19.60;99.90;;;;;;5076560;28;20203;-76
2021/08/10 00:54:45;;;;;;;0.38;0.30;;;19.60;99.90;;;;;;5087827;28;20180;-76
2021/08/10 00:57:11;;;;;;;0.00;0.00;;;19.60;99.90;;;;;;5088843;28;20160;-76
2021/08/10 00:59:37;;;;;;;0.38;0.35;;;19.60;99.90;;;;;;5089177;28;20290;-76
2021/08/10 01:02:04;;;;;;;0.00;0.00;;;19.60;99.90;;;;;;5070744;28;20196;-75
2021/08/10 01:04:30;;;;;;;0.00;0.00;;;19.60;99.90;;;;;;5070943;28;20666;-76
2021/08/10 01:07:20;;;;;;;0.10;0.10;;;19.60;99.90;;;;;;5089186;28;20318;-76
2021/08/10 01:10:08;;;;;;;0.10;0.10;;;19.60;99.90;;;;;;5088539;28;20160;-75
2021/08/10 01:12:46;;;;;;;0.00;0.00;;;19.50;99.90;;;;;;5070140;28;20207;-76
2021/08/10 01:15:16;;;;;;;0.52;0.52;;;19.40;99.90;;;;;;5070307;28;20175;-76
2021/08/10 01:17:46;;;;;;;0.10;0.10;;;19.40;99.90;;;;;;5070171;28;20201;-76
2021/08/10 01:20:50;;;;;;;0.28;0.28;;;19.30;99.90;;;;;;5070151;28;20522;-76
2021/08/10 01:23:21;;;;;;;0.00;0.00;;;19.20;99.90;;;;;;5065975;28;20198;-76
2021/08/10 01:26:22;;;;;;;0.00;0.00;;;19.20;99.90;;;;;;5087960;28;20230;-76
2021/08/10 01:29:15;;;;;;;1.40;0.52;;;19.10;99.90;;;;;;5070257;28;20220;-76
2021/08/10 01:31:43;;;;;;;0.00;0.00;;;19.00;99.90;;;;;;5077139;28;20203;-76
2021/08/10 01:34:41;;;;;;;0.47;0.47;;;19.10;99.90;;;;;;5088221;28;20178;-76
2021/08/10 01:37:34;;;;;;;0.00;0.00;;;19.10;99.90;;;;;;5088284;28;20553;-76
2021/08/10 01:40:03;;;;;;;0.10;0.10;;;19.00;99.90;;;;;;5085415;28;20183;-76
2021/08/10 01:42:33;;;;;;;0.00;0.00;;;19.00;99.90;;;;;;5088022;28;20199;-76
2021/08/10 01:45:02;;;;;;;0.20;0.20;;;19.00;99.90;;;;;;5088072;28;20254;-76
2021/08/10 01:47:30;;;;;;;0.00;0.00;;;19.10;99.90;;;;;;5087962;28;20156;-76
2021/08/10 01:50:01;;;;;;;0.00;0.00;;;19.10;99.90;;;;;;5087309;28;20152;-76
2021/08/10 01:52:27;;;;;;;0.00;0.00;;;19.10;99.90;;;;;;5086762;28;20176;-76
2021/08/10 01:54:55;;;;;;;0.00;0.00;;;19.10;99.90;;;;;;5087931;28;20226;-76
2021/08/10 01:57:22;;;;;;;0.90;0.52;;;19.10;99.90;;;;;;5086478;28;20191;-76
2021/08/10 01:59:53;;;;;;;0.22;0.22;;;19.10;99.90;;;;;;5087698;28;20210;-76
2021/08/10 02:02:19;;;;;;;0.00;0.00;;;19.10;99.90;;;;;;5087741;28;20176;-76
2021/08/10 02:04:48;;;;;;;0.00;0.00;;;19.10;99.90;;;;;;5090811;28;20290;-76
2021/08/10 02:07:15;;;;;;;0.00;0.00;;;19.20;99.90;;;;;;5091512;28;20180;-76
2021/08/10 02:09:42;;;;;;;0.45;0.45;;;19.20;99.90;;;;;;5089972;28;20208;-76
2021/08/10 02:12:08;;;;;;;0.10;0.10;;;19.30;99.90;;;;;;5090127;28;20167;-76
2021/08/10 02:14:36;;;;;;;0.70;0.38;;;19.30;99.90;;;;;;5091474;28;20202;-76
2021/08/10 02:17:06;;;;;;;0.47;0.47;;;19.30;99.90;;;;;;5091279;28;20156;-77
2021/08/10 02:19:34;;;;;;;0.00;0.00;;;19.10;99.90;;;;;;5089896;28;20171;-76
2021/08/10 02:22:06;;;;;;;0.10;0.10;;;19.30;99.90;;;;;;5091269;28;20152;-77
2021/08/10 02:24:48;;;;;;;0.05;0.05;;;19.20;99.90;;;;;;5090752;28;20247;-76
2021/08/10 02:27:44;;;;;;;0.10;0.10;;;19.10;99.90;;;;;;5091069;28;20179;-76
2021/08/10 02:30:13;;;;;;;3.75;1.05;;;19.00;99.90;;;;;;5089647;28;20199;-76
2021/08/10 02:32:43;;;;;;;0.00;0.00;;;18.90;99.90;;;;;;5091329;28;20153;-76
2021/08/10 02:35:10;;;;;;;1.65;1.55;;;18.90;99.90;;;;;;5091370;28;20192;-77
2021/08/10 02:37:37;;;;;;;0.00;0.00;;;18.80;99.90;;;;;;5089431;28;20184;-77
2021/08/10 02:40:09;;;;;;;0.15;0.15;;;18.80;99.90;;;;;;5089995;28;20168;-78
2021/08/10 02:42:36;;;;;;;0.10;0.10;;;18.90;99.90;;;;;;5090548;28;20270;-79
2021/08/10 02:45:04;;;;;;;0.15;0.15;;;18.90;99.90;;;;;;5090840;28;20196;-77
2021/08/10 02:47:30;;;;;;;0.85;0.85;;;18.90;99.90;;;;;;5090686;28;20174;-76
2021/08/10 02:49:56;;;;;;;0.00;0.00;;;18.90;99.90;;;;;;5089226;28;20242;-77
2021/08/10 02:52:22;;;;;;;0.00;0.00;;;18.90;99.90;;;;;;5089743;28;20160;-78
2021/08/10 02:54:48;;;;;;;0.32;0.32;;;18.90;99.90;;;;;;5091156;28;20196;-77
2021/08/10 02:57:28;;;;;;;0.00;0.00;;;18.70;99.90;;;;;;5091308;28;20168;-76
2021/08/10 03:00:10;;;;;;;0.38;0.38;;;18.50;99.90;;;;;;5089129;28;20174;-76
2021/08/10 03:02:46;;;;;;;0.10;0.10;;;18.60;99.90;;;;;;5090415;28;20184;-77
2021/08/10 03:05:18;;;;;;;0.38;0.20;;;18.60;99.90;;;;;;5090127;28;20219;-75
2021/08/10 03:07:55;;;;;;;0.13;0.13;;;18.50;99.90;;;;;;5088816;28;20221;-76
2021/08/10 03:10:25;;;;;;;0.10;0.10;;;18.30;99.90;;;;;;5090501;28;20199;-76
2021/08/10 03:12:52;;;;;;;0.00;0.00;;;18.40;99.90;;;;;;5090456;28;20637;-76
2021/08/10 03:15:22;;;;;;;0.00;0.00;;;18.20;99.90;;;;;;5089363;28;20152;-75
2021/08/10 03:17:54;;;;;;;0.80;0.35;;;18.20;99.90;;;;;;5090074;28;20172;-76
2021/08/10 03:20:24;;;;;;;0.00;0.00;;;18.00;99.90;;;;;;5088543;28;20199;-76
2021/08/10 03:22:52;;;;;;;0.32;0.32;;;18.00;99.90;;;;;;5090011;28;20156;-75
2021/08/10 03:25:20;;;;;;;0.30;0.28;;;17.90;99.90;;;;;;5090032;28;20315;-75
2021/08/10 03:27:49;;;;;;;0.00;0.00;;;17.90;99.90;;;;;;5090291;28;20529;-75
2021/08/10 03:30:17;;;;;;;0.22;0.22;;;17.90;99.90;;;;;;5090119;28;20192;-75
2021/08/10 03:32:46;;;;;;;0.30;0.30;;;17.90;99.90;;;;;;5088760;28;20167;-75
2021/08/10 03:35:12;;;;;;;0.10;0.10;;;17.80;99.90;;;;;;5089962;28;20156;-75
2021/08/10 03:37:43;;;;;;;0.22;0.22;;;17.70;99.90;;;;;;5088532;28;20172;-75
2021/08/10 03:40:10;;;;;;;0.00;0.00;;;17.70;99.90;;;;;;5088537;28;20629;-74
2021/08/10 03:42:36;;;;;;;0.10;0.10;;;17.70;99.90;;;;;;5088670;28;20164;-76
2021/08/10 03:45:03;;;;;;;0.10;0.10;;;17.70;99.90;;;;;;5088592;28;20200;-76
2021/08/10 03:47:31;;;;;;;0.00;0.00;;;17.80;99.90;;;;;;5089146;28;20684;-78
2021/08/10 03:49:58;;;;;;;1.30;1.08;;;18.00;99.90;;;;;;5090399;28;20201;-76
2021/08/10 03:52:24;;;;;;;0.00;0.00;;;17.90;99.90;;;;;;5089101;28;20168;-77
2021/08/10 03:54:50;;;;;;;0.00;0.00;;;17.90;99.90;;;;;;5089166;28;20229;-76
2021/08/10 03:57:19;;;;;;;0.30;0.30;;;17.90;99.90;;;;;;5090262;28;20160;-76
2021/08/10 03:59:51;;;;;;;0.05;0.05;;;17.80;99.90;;;;;;5088769;28;20179;-76
2021/08/10 04:02:18;;;;;;;0.00;0.00;;;17.90;99.90;;;;;;5090203;28;20199;-76
2021/08/10 04:04:46;;;;;;;0.10;0.10;;;18.00;99.90;;;;;;5088738;28;20199;-75
2021/08/10 04:07:13;;;;;;;0.10;0.10;;;18.10;99.90;;;;;;5089404;28;20188;-75
2021/08/10 04:09:40;;;;;;;0.10;0.10;;;18.20;99.90;;;;;;5089709;28;20175;-76
2021/08/10 04:12:09;;;;;;;0.03;0.03;;;18.30;99.90;;;;;;5088067;28;20215;-76
2021/08/10 04:14:36;;;;;;;0.25;0.20;;;18.10;99.90;;;;;;5089217;28;20671;-75
2021/08/10 04:17:06;;;;;;;0.10;0.10;;;18.10;99.90;;;;;;5087804;28;20179;-76
2021/08/10 04:19:36;;;;;;;0.90;0.22;;;18.30;99.90;;;;;;5089058;28;20153;-76
2021/08/10 04:22:04;;;;;;;0.00;0.00;;;18.40;99.90;;;;;;5089227;28;20191;-75
2021/08/10 04:24:31;;;;;;;0.47;0.47;;;18.50;99.90;;;;;;5087367;28;20222;-76
2021/08/10 04:26:57;;;;;;;0.10;0.10;;;18.10;99.90;;;;;;5087721;28;20175;-78
2021/08/10 04:29:23;;;;;;;0.65;0.65;;;17.90;99.90;;;;;;5088913;28;20569;-76
2021/08/10 04:31:49;;;;;;;0.10;0.10;;;17.90;99.90;;;;;;5088819;28;20199;-76
2021/08/10 04:34:15;;;;;;;1.65;1.38;;;18.10;99.90;;;;;;5088765;28;20170;-76
2021/08/10 04:36:41;;;;;;;0.32;0.32;;;18.40;99.90;;;;;;5088819;28;20590;-77
2021/08/10 04:39:07;;;;;;;0.15;0.15;;;18.70;99.90;;;;;;5087259;28;20504;-76
2021/08/10 04:41:33;;;;;;;0.00;0.00;;;18.90;99.90;;;;;;5088864;28;20192;-75
2021/08/10 04:43:59;;;;;;;0.28;0.28;;;19.00;99.90;;;;;;5088736;28;20167;-75
2021/08/10 04:46:27;;;;;;;0.03;0.03;;;19.30;99.90;;;;;;5088404;28;20192;-75
2021/08/10 04:48:55;;;;;;;0.30;0.30;;;19.50;99.90;;;;;;5087257;28;20168;-75
2021/08/10 04:51:21;;;;;;;0.50;0.50;;;19.80;99.90;;;;;;5088565;28;20209;-76
2021/08/10 04:53:47;;;;;;;0.57;0.52;;;20.00;99.90;;;;;;5088325;28;20195;-76
2021/08/10 04:56:13;;;;;;;0.17;0.17;;;20.10;99.90;;;;;;5088446;28;20160;-76
2021/08/10 04:58:39;;;;;;;0.00;0.00;;;20.40;99.90;;;;;;5088277;28;20182;-76
2021/08/10 05:01:06;;;;;;;0.30;0.30;;;20.50;99.90;;;;;;5088494;28;20160;-76
2021/08/10 05:03:32;;;;;;;0.95;0.47;;;20.60;99.90;;;;;;5088163;28;20202;-76
2021/08/10 05:05:58;;;;;;;0.73;0.73;;;20.70;99.90;;;;;;5086895;28;20202;-77
2021/08/10 05:08:25;;;;;;;0.95;0.95;;;20.80;99.90;;;;;;5088192;28;20186;-76
2021/08/10 05:10:54;;;;;;;0.80;0.30;;;20.90;99.90;;;;;;5086840;28;20168;-76
2021/08/10 05:13:20;;;;;;;1.77;0.40;;;21.00;99.90;;;;;;5087783;28;20206;-76
2021/08/10 05:15:46;;;;;;;0.30;0.30;;;21.40;99.90;;;;;;5088171;28;20179;-76
2021/08/10 05:18:12;;;;;;;0.63;0.63;;;21.20;99.90;;;;;;5086728;28;20605;-77
2021/08/10 05:20:38;;;;;;;0.10;0.10;;;21.20;99.90;;;;;;5086909;28;20231;-76
2021/08/10 05:23:04;;;;;;;0.20;0.20;;;21.30;99.90;;;;;;5087905;28;20195;-76
2021/08/10 05:25:30;;;;;;;0.20;0.20;;;21.60;99.90;;;;;;5087489;28;20227;-75
2021/08/10 05:27:56;;;;;;;0.10;0.10;;;22.30;99.90;;;;;;5087822;28;20159;-75
2021/08/10 05:30:22;;;;;;;0.00;0.00;;;22.20;99.90;;;;;;5087926;28;20159;-75
2021/08/10 05:32:47;;;;;;;0.08;0.08;;;22.20;99.90;;;;;;5088153;28;20214;-76
2021/08/10 05:35:14;;;;;;;0.70;0.70;;;22.30;99.90;;;;;;5088171;28;20164;-75
2021/08/10 05:37:40;;;;;;;0.98;0.43;;;22.30;99.90;;;;;;5086786;28;20171;-76
2021/08/10 05:40:06;;;;;;;0.40;0.40;;;22.70;99.90;;;;;;5092187;28;20162;-76
2021/08/10 05:42:32;;;;;;;0.43;0.43;;;22.40;99.90;;;;;;5092100;28;20187;-75
2021/08/10 05:44:58;;;;;;;0.10;0.10;;;22.20;99.90;;;;;;5091821;28;20183;-75
2021/08/10 05:47:24;;;;;;;0.20;0.20;;;21.90;99.90;;;;;;5091935;28;20155;-75
2021/08/10 05:49:50;;;;;;;0.10;0.10;;;22.00;99.90;;;;;;5090782;28;20175;-76
2021/08/10 05:52:16;;;;;;;1.48;0.90;;;21.90;99.90;;;;;;5091971;28;20191;-75
2021/08/10 05:54:42;;;;;;;0.10;0.10;;;21.70;99.90;;;;;;5107576;28;20202;-76
2021/08/10 05:57:08;;;;;;;0.17;0.17;;;21.60;99.90;;;;;;5090682;28;20199;-75
2021/08/10 05:59:34;;;;;;;0.10;0.10;;;21.90;99.90;;;;;;5091790;28;20167;-75
2021/08/10 06:02:01;;;;;;;0.55;0.55;;;21.70;99.90;;;;;;5091635;28;20191;-76
2021/08/10 06:04:27;;;;;;;0.40;0.40;;;21.40;99.90;;;;;;5090152;28;20175;-76
2021/08/10 06:06:53;;;;;;;0.20;0.20;;;21.50;99.90;;;;;;5090297;28;20182;-76
2021/08/10 06:09:19;;;;;;;2.08;0.85;;;21.50;99.90;;;;;;5090348;28;20262;-76
2021/08/10 06:11:45;;;;;;;0.82;0.52;;;21.60;99.90;;;;;;5091589;28;20184;-76
2021/08/10 06:14:11;;;;;;;0.10;0.10;;;21.80;99.90;;;;;;5091794;28;20638;-78
2021/08/10 06:16:38;;;;;;;0.00;0.00;;;21.90;99.90;;;;;;5091745;28;20662;-76
2021/08/10 06:19:04;;;;;;;0.00;0.00;;;22.10;99.90;;;;;;5090066;28;20179;-79
2021/08/10 06:21:30;;;;;;;0.30;0.30;;;22.10;99.90;;;;;;5089999;28;20225;-76
2021/08/10 06:23:57;;;;;;;0.00;0.00;;;22.50;99.90;;;;;;5089584;28;20217;-76
2021/08/10 06:26:23;;;;;;;0.22;0.22;;;22.70;99.90;;;;;;5089914;28;20195;-76
2021/08/10 06:28:49;;;;;;;0.28;0.28;;;22.70;99.90;;;;;;5091126;28;20156;-76
2021/08/10 06:31:15;;;;;;;0.20;0.20;;;23.00;99.90;;;;;;5089865;28;20219;-76
2021/08/10 06:33:41;;;;;;;2.33;1.17;;;23.00;99.90;;;;;;5064257;28;20215;-76
2021/08/10 06:36:07;;;;;;;1.23;1.13;;;23.00;99.90;;;;;;5077217;28;20194;-77
2021/08/10 06:38:33;;;;;;;0.10;0.10;;;23.40;99.90;;;;;;5072738;28;20167;-77
2021/08/10 06:40:59;;;;;;;0.30;0.30;;;23.90;99.90;;;;;;5079500;28;20210;-76
2021/08/10 06:43:25;;;;;;;0.10;0.10;;;24.20;99.90;;;;;;5052625;28;20199;-76
2021/08/10 06:45:51;;;;;;;0.10;0.10;;;23.90;99.90;;;;;;5070816;28;20573;-75
2021/08/10 06:48:17;;;;;;;0.15;0.15;;;23.60;99.90;;;;;;5071515;28;20164;-78
2021/08/10 06:50:43;;;;;;;0.73;0.73;;;23.80;99.90;;;;;;5089378;28;20159;-76
2021/08/10 06:53:09;;;;;;;0.10;0.10;;;23.80;99.90;;;;;;5090672;28;20195;-77
2021/08/10 06:55:35;;;;;;;0.20;0.20;;;24.00;99.90;;;;;;5090195;28;20151;-76
2021/08/10 06:58:01;;;;;;;0.85;0.85;;;24.20;99.90;;;;;;5088711;28;20167;-77
2021/08/10 07:00:27;;;;;;;1.40;1.30;;;24.70;99.90;;;;;;5072316;28;20168;-76
2021/08/10 07:02:53;;;;;;;4.15;1.05;;;25.00;99.90;;;;;;5090209;28;20202;-76
2021/08/10 07:05:19;;;;;;;0.75;0.73;;;25.30;99.90;;;;;;5089510;28;20207;-77
2021/08/10 07:07:45;;;;;;;0.10;0.10;;;25.30;99.90;;;;;;5070280;28;20160;-76
2021/08/10 07:10:11;;;;;;;0.22;0.22;;;24.90;99.90;;;;;;5052065;28;20239;-76
2021/08/10 07:12:37;;;;;;;0.10;0.10;;;25.20;99.90;;;;;;5074617;28;20231;-77
2021/08/10 07:15:04;;;;;;;1.13;0.35;;;26.00;99.90;;;;;;5088532;28;20216;-77
2021/08/10 07:17:30;;;;;;;2.10;0.43;;;25.70;99.90;;;;;;5091157;28;20194;-76
2021/08/10 07:19:55;;;;;;;0.10;0.10;;;25.60;99.90;;;;;;5089379;28;20178;-76
2021/08/10 07:22:22;;;;;;;0.45;0.45;;;25.70;99.90;;;;;;5087823;28;20199;-77
2021/08/10 07:24:48;;;;;;;0.10;0.10;;;26.60;99.90;;;;;;5089386;28;20215;-76
2021/08/10 07:27:14;;;;;;;0.25;0.25;;;26.60;99.90;;;;;;5100117;28;20249;-77
2021/08/10 07:29:40;;;;;;;0.00;0.00;;;25.90;99.90;;;;;;5087731;28;20207;-76
2021/08/10 07:32:06;;;;;;;0.32;0.32;;;25.50;99.90;;;;;;5071540;28;20168;-76
2021/08/10 07:34:32;;;;;;;0.47;0.40;;;25.50;99.90;;;;;;5065572;28;20178;-76
2021/08/10 07:36:58;;;;;;;0.10;0.10;;;26.20;99.90;;;;;;5095405;28;20160;-76
2021/08/10 07:39:24;;;;;;;0.30;0.30;;;26.60;99.90;;;;;;5084562;28;20163;-76
2021/08/10 07:41:50;;;;;;;1.40;0.73;;;26.30;99.90;;;;;;5085635;28;20210;-76
2021/08/10 07:44:16;;;;;;;0.38;0.38;;;26.10;99.90;;;;;;5080159;28;20168;-77
2021/08/10 07:46:42;;;;;;;0.20;0.20;;;26.40;99.90;;;;;;5086210;28;20215;-76
2021/08/10 07:49:08;;;;;;;0.25;0.25;;;26.20;99.90;;;;;;5085218;28;20184;-76
2021/08/10 07:51:34;;;;;;;0.10;0.10;;;26.30;99.90;;;;;;5084748;28;20196;-76
2021/08/10 07:54:00;;;;;;;0.32;0.32;;;25.60;99.90;;;;;;5088667;28;20168;-76
2021/08/10 07:56:26;;;;;;;0.15;0.15;;;26.10;99.90;;;;;;5089335;28;20180;-75
2021/08/10 07:58:52;;;;;;;0.63;0.35;;;26.20;99.90;;;;;;5058858;28;20587;-76
2021/08/10 08:01:17;;;;;;;0.10;0.10;;;26.40;99.90;;;;;;5068522;28;20162;-76
2021/08/10 08:03:43;;;;;;;0.05;0.05;;;26.00;99.90;;;;;;5078501;28;20214;-76
2021/08/10 08:06:09;;;;;;;1.35;0.50;;;26.10;99.90;;;;;;5075337;28;20237;-76
2021/08/10 08:08:38;;;;;;;0.10;0.10;;;26.10;99.90;;;;;;5087838;28;20262;-76
2021/08/10 08:11:04;;;;;;;0.20;0.20;;;26.50;99.90;;;;;;5088834;28;20167;-77
2021/08/10 08:13:30;;;;;;;0.45;0.25;;;26.80;99.90;;;;;;5088881;28;20152;-77
2021/08/10 08:15:56;;;;;;;0.32;0.30;;;26.70;99.90;;;;;;5104483;28;20179;-74
2021/08/10 08:18:25;;;;;;;0.10;0.10;;;26.50;99.90;;;;;;5070846;28;20733;-75
2021/08/10 08:20:52;;;;;;;0.17;0.17;;;27.00;99.90;;;;;;5088533;28;20160;-75
2021/08/10 08:23:18;;;;;;;0.30;0.30;;;27.50;99.90;;;;;;5088492;28;20159;-75
2021/08/10 08:25:45;;;;;;;0.30;0.30;;;27.50;99.90;;;;;;5066732;28;20223;-74
2021/08/10 08:28:12;;;;;;;0.10;0.10;;;27.60;99.90;;;;;;5067113;28;20188;-74
2021/08/10 08:30:39;;;;;;;0.28;0.28;;;27.30;99.90;;;;;;5100491;28;20211;-74
2021/08/10 08:33:10;;;;;;;0.10;0.10;;;27.00;99.90;;;;;;5068563;28;20255;-75
2021/08/10 08:35:38;;;;;;;0.40;0.40;;;27.10;99.90;;;;;;5068582;28;20164;-75
2021/08/10 08:38:05;;;;;;;5.60;1.55;;;27.20;99.90;;;;;;5068472;28;20195;-74
2021/08/10 08:40:32;;;;;;;0.10;0.10;;;27.40;99.90;;;;;;5068540;28;20183;-76
2021/08/10 08:42:57;;;;;;;0.10;0.10;;;27.70;99.90;;;;;;5067228;28;20175;-76
2021/08/10 08:45:24;;;;;;;0.10;0.10;;;27.00;99.90;;;;;;5066900;28;20198;-75
2021/08/10 08:47:51;;;;;;;1.55;0.63;;;26.80;99.90;;;;;;5068324;28;20153;-76
2021/08/10 08:50:22;;;;;;;0.10;0.10;;;26.70;99.90;;;;;;5068234;28;20164;-76
2021/08/10 08:52:51;;;;;;;0.22;0.22;;;27.40;99.90;;;;;;5066932;28;20165;-76
2021/08/10 08:55:20;;;;;;;0.03;0.03;;;27.80;99.90;;;;;;5068174;28;20633;-75
2021/08/10 08:57:47;;;;;;;0.10;0.10;;;27.80;99.90;;;;;;5068094;28;20164;-75
2021/08/10 09:00:17;;;;;;;2.90;0.55;;;27.60;99.90;;;;;;5068201;28;20164;-76
2021/08/10 09:02:44;;;;;;;0.20;0.20;;;27.40;99.90;;;;;;5068257;28;20219;-76
2021/08/10 09:05:11;;;;;;;0.10;0.10;;;27.30;99.90;;;;;;5068025;28;20188;-76
2021/08/10 09:07:37;;;;;;;0.65;0.38;;;27.10;99.90;;;;;;5068094;28;20164;-77
2021/08/10 09:10:09;;;;;;;0.75;0.35;;;27.20;99.90;;;;;;5066657;28;20527;-75
2021/08/10 09:12:41;;;;;;;10.05;1.40;;;27.60;99.90;;;;;;5067416;28;20157;-76
2021/08/10 09:15:08;;;;;;;0.40;0.40;;;28.10;99.90;;;;;;5066552;28;20176;-75
2021/08/10 09:17:33;;;;;;;0.00;0.00;;;28.00;99.90;;;;;;5067759;28;20191;-74
2021/08/10 09:20:03;;;;;;;0.08;0.08;;;28.30;99.90;;;;;;5063292;28;20529;-75
2021/08/10 09:22:32;;;;;;;0.10;0.10;;;28.40;99.90;;;;;;5058701;28;20169;-75
2021/08/10 09:25:11;;;;;;;0.47;0.30;;;28.40;99.90;;;;;;5076280;28;20219;-75
2021/08/10 09:27:40;;;;;;;1.10;0.47;;;29.00;99.90;;;;;;5083407;28;20213;-75
2021/08/10 09:30:12;;;;;;;0.10;0.10;;;29.30;99.90;;;;;;5080729;28;20246;-76
2021/08/10 09:32:53;;;;;;;0.55;0.25;;;29.80;99.90;;;;;;5088165;28;20159;-75
2021/08/10 09:35:20;;;;;;;0.40;0.40;;;30.00;99.90;;;;;;5081083;28;20572;-74
2021/08/10 09:38:15;;;;;;;0.10;0.10;;;28.70;99.90;;;;;;5083946;28;20199;-75
2021/08/10 09:40:47;;;;;;;0.10;0.10;;;29.20;99.90;;;;;;5062816;28;20269;-76
2021/08/10 09:43:32;;;;;;;1.00;0.50;;;29.30;99.90;;;;;;5083025;28;20207;-74
2021/08/10 09:46:09;;;;;;;0.45;0.45;;;29.20;99.90;;;;;;5080803;28;20283;-75
2021/08/10 09:48:38;;;;;;;0.38;0.38;;;29.10;99.90;;;;;;5081824;28;20194;-75
2021/08/10 09:51:21;;;;;;;1.17;0.98;;;30.00;99.90;;;;;;5084078;28;20183;-75
2021/08/10 09:54:14;;;;;;;1.23;0.50;;;30.60;99.90;;;;;;5102867;28;20170;-75
2021/08/10 09:57:00;;;;;;;0.20;0.20;;;28.80;99.90;;;;;;5079552;28;20201;-75
2021/08/10 09:59:29;;;;;;;0.20;0.20;;;29.00;99.90;;;;;;5092044;28;20313;-75
2021/08/10 10:01:59;;;;;;;0.50;0.50;;;29.40;99.90;;;;;;5074878;28;20167;-75
2021/08/10 10:04:27;;;;;;;0.03;0.03;;;29.30;99.90;;;;;;5059364;28;20198;-76
2021/08/10 10:06:58;;;;;;;0.05;0.05;;;29.50;99.90;;;;;;5061070;28;20221;-73
2021/08/10 10:09:26;;;;;;;0.20;0.20;;;29.20;99.90;;;;;;5058280;28;20206;-76
2021/08/10 10:11:54;;;;;;;0.82;0.45;;;29.50;99.90;;;;;;5049631;28;20199;-74
2021/08/10 10:14:22;;;;;;;0.30;0.30;;;29.60;99.90;;;;;;5067265;28;20157;-74
2021/08/10 10:16:51;;;;;;;0.20;0.20;;;29.80;99.90;;;;;;5067447;28;20579;-75
2021/08/10 10:19:18;;;;;;;0.30;0.30;;;29.90;99.90;;;;;;5049474;28;20200;-75
2021/08/10 10:21:48;;;;;;;0.45;0.38;;;30.20;99.90;;;;;;5067283;28;20585;-75
2021/08/10 10:24:16;;;;;;;0.30;0.30;;;30.30;99.90;;;;;;5067962;28;20310;-75
2021/08/10 10:26:44;;;;;;;0.30;0.30;;;31.20;99.90;;;;;;5070783;28;20207;-76
2021/08/10 10:29:13;;;;;;;0.20;0.20;;;31.70;99.90;;;;;;5070811;28;20194;-75
2021/08/10 10:31:40;;;;;;;1.17;0.15;;;31.10;99.90;;;;;;5070790;28;20160;-75
2021/08/10 10:34:06;;;;;;;0.13;0.10;;;31.70;99.90;;;;;;5085074;28;20171;-74
2021/08/10 10:36:34;;;;;;;0.70;0.45;;;31.00;99.90;;;;;;5072428;28;20392;-74
2021/08/10 10:39:01;;;;;;;0.15;0.15;;;31.10;99.90;;;;;;5072522;28;20206;-75
2021/08/10 10:41:33;;;;;;;0.60;0.45;;;30.20;99.90;;;;;;5090539;28;20171;-75
2021/08/10 10:44:00;;;;;;;0.80;0.80;;;31.30;99.90;;;;;;5090167;28;20205;-75
2021/08/10 10:46:37;;;;;;;0.10;0.10;;;32.30;99.90;;;;;;5071868;28;20204;-73
2021/08/10 10:49:08;;;;;;;0.38;0.38;;;30.80;99.90;;;;;;5089920;28;20213;-74
2021/08/10 10:51:37;;;;;;;1.25;0.50;;;30.70;99.90;;;;;;5089902;28;20225;-74
2021/08/10 10:54:25;;;;;;;0.73;0.70;;;30.90;99.90;;;;;;5089710;28;20162;-74
2021/08/10 10:56:58;;;;;;;2.78;0.55;;;30.10;99.90;;;;;;5083372;28;20175;-74
2021/08/10 10:59:33;;;;;;;0.00;0.00;;;30.50;99.90;;;;;;5080424;28;20203;-74
2021/08/10 11:02:17;;;;;;;0.00;0.00;;;30.90;99.90;;;;;;5080744;28;20256;-74
2021/08/10 11:05:08;;;;;;;1.88;1.27;;;31.50;99.90;;;;;;5082206;28;20172;-74
2021/08/10 11:07:46;;;;;;;0.00;0.00;;;31.90;99.90;;;;;;5080287;28;20191;-75
2021/08/10 11:10:46;;;;;;;0.00;0.00;;;32.20;99.90;;;;;;5062499;28;20198;-75
2021/08/10 11:13:21;;;;;;;0.57;0.22;;;32.30;99.90;;;;;;5085324;28;20176;-75
2021/08/10 11:15:47;;;;;;;0.30;0.30;;;31.80;99.90;;;;;;5062488;28;20171;-74
2021/08/10 11:18:13;;;;;;;0.35;0.30;;;31.60;99.90;;;;;;5060305;28;20172;-73
2021/08/10 11:20:50;;;;;;;0.57;0.40;;;32.10;99.90;;;;;;5078829;28;20180;-73
2021/08/10 11:23:22;;;;;;;0.35;0.35;;;31.80;99.90;;;;;;5085414;28;20164;-73
2021/08/10 11:26:13;;;;;;;0.08;0.08;;;31.80;99.90;;;;;;5080052;28;20222;-73
2021/08/10 11:28:49;;;;;;;0.28;0.20;;;32.40;99.90;;;;;;5070837;28;20200;-73
2021/08/10 11:31:35;;;;;;;0.52;0.30;;;32.60;99.90;;;;;;5079966;28;20186;-74
2021/08/10 11:34:03;;;;;;;0.50;0.50;;;32.10;99.90;;;;;;5065550;28;20179;-74
2021/08/10 11:36:30;;;;;;;0.70;0.32;;;32.30;99.90;;;;;;5078438;28;20195;-74
2021/08/10 11:39:02;;;;;;;0.00;0.00;;;32.50;99.90;;;;;;5082705;28;20588;-75
2021/08/10 11:41:28;;;;;;;0.10;0.10;;;33.00;99.90;;;;;;5082025;28;20172;-74
2021/08/10 11:43:59;;;;;;;0.20;0.20;;;33.30;99.90;;;;;;5077591;28;20180;-74
2021/08/10 11:46:28;;;;;;;0.60;0.60;;;33.20;99.90;;;;;;5077245;28;20252;-74
2021/08/10 11:48:55;;;;;;;0.20;0.13;;;32.70;99.90;;;;;;5079625;28;20155;-74
2021/08/10 11:51:35;;;;;;;0.10;0.10;;;32.20;99.90;;;;;;5078316;28;20160;-74
2021/08/10 11:54:10;;;;;;;0.20;0.20;;;32.40;99.90;;;;;;5084217;28;20176;-74
2021/08/10 11:56:43;;;;;;;0.45;0.45;;;31.70;99.90;;;;;;5085558;28;20198;-74
2021/08/10 11:59:15;;;;;;;0.38;0.38;;;32.30;99.90;;;;;;5080101;28;20202;-75
2021/08/10 12:01:41;;;;;;;0.52;0.52;;;33.60;99.90;;;;;;5082385;28;20243;-74
2021/08/10 12:04:10;;;;;;;0.25;0.25;;;34.00;99.90;;;;;;5079206;28;20171;-73
2021/08/10 12:06:36;;;;;;;0.10;0.10;;;33.60;99.90;;;;;;5060793;28;20195;-73
2021/08/10 12:09:26;;;;;;;0.20;0.20;;;32.80;99.90;;;;;;5082244;28;20163;-73
2021/08/10 12:11:55;;;;;;;0.32;0.28;;;32.80;99.90;;;;;;5070563;28;20562;-74
2021/08/10 12:14:23;;;;;;;2.67;0.65;;;32.70;99.90;;;;;;5070799;28;20190;-75
2021/08/10 12:17:04;;;;;;;0.30;0.30;;;32.50;99.90;;;;;;5088851;28;20182;-73
2021/08/10 12:19:50;;;;;;;0.50;0.28;;;31.80;99.90;;;;;;5088433;28;20174;-72
2021/08/10 12:22:21;;;;;;;0.10;0.10;;;30.40;99.90;;;;;;5068419;28;20195;-73
2021/08/10 12:24:49;;;;;;;0.43;0.35;;;29.10;99.90;;;;;;5068499;28;20575;-74
2021/08/10 12:27:17;;;;;;;0.00;0.00;;;28.30;99.90;;;;;;5068743;28;20176;-76
2021/08/10 12:29:49;;;;;;;5.00;0.68;;;27.80;99.90;;;;;;5067934;28;20243;-74
2021/08/10 12:32:23;;;;;;;0.40;0.32;;;27.60;99.90;;;;;;5066776;28;20168;-74
2021/08/10 12:34:50;;;;;;;0.05;0.05;;;27.50;99.90;;;;;;5086376;28;20266;-74
2021/08/10 12:37:16;;;;;;;0.28;0.28;;;27.50;99.90;;;;;;5088570;28;20155;-74
2021/08/10 12:39:45;;;;;;;0.52;0.40;;;27.20;99.90;;;;;;5082788;28;20164;-74
2021/08/10 12:42:12;;;;;;;0.20;0.20;;;27.30;99.90;;;;;;5070507;28;20254;-74
2021/08/10 12:44:39;;;;;;;0.28;0.28;;;27.20;99.90;;;;;;5088323;28;20215;-74
2021/08/10 12:47:08;;;;;;;0.05;0.05;;;27.40;99.90;;;;;;5070326;28;20167;-75
2021/08/10 12:49:42;;;;;;;0.10;0.10;;;27.20;99.90;;;;;;5087241;28;20210;-73
2021/08/10 12:52:16;;;;;;;0.28;0.28;;;27.10;99.90;;;;;;5085339;28;20788;-74
2021/08/10 12:54:52;;;;;;;0.25;0.25;;;27.00;99.90;;;;;;5049668;28;20196;-75
2021/08/10 12:57:24;;;;;;;0.20;0.20;;;27.20;99.90;;;;;;5067895;28;20207;-74
2021/08/10 12:59:55;;;;;;;0.20;0.20;;;27.20;99.90;;;;;;5067900;28;20183;-75